sensor_id;sensor_type;location;lat;lon;timestamp;temperature;humidity
50758;DHT22;36732;47.980;11.652;2023-12-20T00:01:01;7.90;59.90
50758;DHT22;36732;47.980;11.652;2023-12-20T00:03:27;7.90;59.60
50758;DHT22;36732;47.980;11.652;2023-12-20T00:05:53;7.90;59.60
50758;DHT22;36732;47.980;11.652;2023-12-20T00:08:18;7.90;59.70
50758;DHT22;36732;47.980;11.652;2023-12-20T00:10:44;7.90;59.80
50758;DHT22;36732;47.980;11.652;2023-12-20T00:13:10;7.90;59.60
50758;DHT22;36732;47.980;11.652;2023-12-20T00:15:36;7.90;59.70
50758;DHT22;36732;47.980;11.652;2023-12-20T00:18:02;7.90;59.70
50758;DHT22;36732;47.980;11.652;2023-12-20T00:20:28;7.90;59.60
50758;DHT22;36732;47.980;11.652;2023-12-20T00:22:57;7.90;59.60
50758;DHT22;36732;47.980;11.652;2023-12-20T00:25:24;7.90;59.70
50758;DHT22;36732;47.980;11.652;2023-12-20T00:27:50;7.90;59.80
50758;DHT22;36732;47.980;11.652;2023-12-20T00:30:16;7.90;59.90
50758;DHT22;36732;47.980;11.652;2023-12-20T00:32:42;7.90;59.90
50758;DHT22;36732;47.980;11.652;2023-12-20T00:35:14;7.90;59.80
50758;DHT22;36732;47.980;11.652;2023-12-20T00:37:40;7.90;59.70
50758;DHT22;36732;47.980;11.652;2023-12-20T00:40:06;7.90;59.50
50758;DHT22;36732;47.980;11.652;2023-12-20T00:42:33;7.90;59.70
50758;DHT22;36732;47.980;11.652;2023-12-20T00:44:59;7.90;59.80
50758;DHT22;36732;47.980;11.652;2023-12-20T00:47:25;7.90;59.80
50758;DHT22;36732;47.980;11.652;2023-12-20T00:49:51;7.90;59.80
50758;DHT22;36732;47.980;11.652;2023-12-20T00:52:18;7.90;59.80
50758;DHT22;36732;47.980;11.652;2023-12-20T00:54:44;7.90;59.80
50758;DHT22;36732;47.980;11.652;2023-12-20T00:57:10;7.90;59.70
50758;DHT22;36732;47.980;11.652;2023-12-20T00:59:36;7.90;59.80
50758;DHT22;36732;47.980;11.652;2023-12-20T01:02:02;7.90;59.70
50758;DHT22;36732;47.980;11.652;2023-12-20T01:04:28;7.90;59.50
50758;DHT22;36732;47.980;11.652;2023-12-20T01:06:53;7.90;59.50
50758;DHT22;36732;47.980;11.652;2023-12-20T01:09:19;7.90;59.60
50758;DHT22;36732;47.980;11.652;2023-12-20T01:11:45;7.90;59.70
50758;DHT22;36732;47.980;11.652;2023-12-20T01:14:13;7.90;59.60
50758;DHT22;36732;47.980;11.652;2023-12-20T01:16:39;7.90;59.70
50758;DHT22;36732;47.980;11.652;2023-12-20T01:19:05;7.90;59.70
50758;DHT22;36732;47.980;11.652;2023-12-20T01:21:30;7.90;59.80
50758;DHT22;36732;47.980;11.652;2023-12-20T01:23:56;7.90;59.70
50758;DHT22;36732;47.980;11.652;2023-12-20T01:26:22;7.90;59.70
50758;DHT22;36732;47.980;11.652;2023-12-20T01:28:48;7.90;59.70
50758;DHT22;36732;47.980;11.652;2023-12-20T01:31:13;7.90;59.80
50758;DHT22;36732;47.980;11.652;2023-12-20T01:33:39;7.90;59.60
50758;DHT22;36732;47.980;11.652;2023-12-20T01:36:05;8.00;59.60
50758;DHT22;36732;47.980;11.652;2023-12-20T01:38:30;7.90;59.60
50758;DHT22;36732;47.980;11.652;2023-12-20T01:40:56;7.90;59.40
50758;DHT22;36732;47.980;11.652;2023-12-20T01:43:22;7.90;59.30
50758;DHT22;36732;47.980;11.652;2023-12-20T01:45:48;7.90;59.40
50758;DHT22;36732;47.980;11.652;2023-12-20T01:48:15;7.90;59.40
50758;DHT22;36732;47.980;11.652;2023-12-20T01:50:41;7.90;59.40
50758;DHT22;36732;47.980;11.652;2023-12-20T01:53:10;7.90;59.50
50758;DHT22;36732;47.980;11.652;2023-12-20T01:55:39;7.90;59.50
50758;DHT22;36732;47.980;11.652;2023-12-20T01:58:09;7.90;59.40
50758;DHT22;36732;47.980;11.652;2023-12-20T02:00:36;7.90;59.40
50758;DHT22;36732;47.980;11.652;2023-12-20T02:03:03;7.90;59.40
50758;DHT22;36732;47.980;11.652;2023-12-20T02:05:34;7.90;59.40
50758;DHT22;36732;47.980;11.652;2023-12-20T02:08:00;7.90;59.50
50758;DHT22;36732;47.980;11.652;2023-12-20T02:10:26;7.90;59.50
50758;DHT22;36732;47.980;11.652;2023-12-20T02:12:52;7.90;59.50
50758;DHT22;36732;47.980;11.652;2023-12-20T02:15:18;7.90;59.40
50758;DHT22;36732;47.980;11.652;2023-12-20T02:17:45;8.00;59.60
50758;DHT22;36732;47.980;11.652;2023-12-20T02:20:12;7.90;59.50
50758;DHT22;36732;47.980;11.652;2023-12-20T02:22:37;7.90;59.50
50758;DHT22;36732;47.980;11.652;2023-12-20T02:25:03;7.90;59.50
50758;DHT22;36732;47.980;11.652;2023-12-20T02:27:30;7.90;59.50
50758;DHT22;36732;47.980;11.652;2023-12-20T02:29:56;7.90;59.40
50758;DHT22;36732;47.980;11.652;2023-12-20T02:32:22;7.90;59.50
50758;DHT22;36732;47.980;11.652;2023-12-20T02:34:51;7.90;59.40
50758;DHT22;36732;47.980;11.652;2023-12-20T02:37:17;7.90;59.50
50758;DHT22;36732;47.980;11.652;2023-12-20T02:39:43;7.90;59.50
50758;DHT22;36732;47.980;11.652;2023-12-20T02:42:08;7.90;59.50
50758;DHT22;36732;47.980;11.652;2023-12-20T02:44:34;7.90;59.50
50758;DHT22;36732;47.980;11.652;2023-12-20T02:47:00;7.90;59.90
50758;DHT22;36732;47.980;11.652;2023-12-20T02:49:26;7.90;59.60
50758;DHT22;36732;47.980;11.652;2023-12-20T02:51:51;7.90;59.70
50758;DHT22;36732;47.980;11.652;2023-12-20T02:54:17;7.90;59.60
50758;DHT22;36732;47.980;11.652;2023-12-20T02:56:43;7.90;59.60
50758;DHT22;36732;47.980;11.652;2023-12-20T02:59:08;7.90;59.50
50758;DHT22;36732;47.980;11.652;2023-12-20T03:01:34;7.90;59.50
50758;DHT22;36732;47.980;11.652;2023-12-20T03:04:01;7.90;59.60
50758;DHT22;36732;47.980;11.652;2023-12-20T03:06:27;7.90;59.60
50758;DHT22;36732;47.980;11.652;2023-12-20T03:08:52;7.90;59.40
50758;DHT22;36732;47.980;11.652;2023-12-20T03:11:18;7.90;59.50
50758;DHT22;36732;47.980;11.652;2023-12-20T03:13:44;7.90;59.60
50758;DHT22;36732;47.980;11.652;2023-12-20T03:16:11;7.90;59.60
50758;DHT22;36732;47.980;11.652;2023-12-20T03:18:37;7.90;59.70
50758;DHT22;36732;47.980;11.652;2023-12-20T03:21:03;7.90;59.60
50758;DHT22;36732;47.980;11.652;2023-12-20T03:23:29;8.00;59.70
50758;DHT22;36732;47.980;11.652;2023-12-20T03:25:56;7.90;59.70
50758;DHT22;36732;47.980;11.652;2023-12-20T03:28:22;8.00;59.70
50758;DHT22;36732;47.980;11.652;2023-12-20T03:30:48;8.00;59.80
50758;DHT22;36732;47.980;11.652;2023-12-20T03:33:14;7.90;59.80
50758;DHT22;36732;47.980;11.652;2023-12-20T03:35:40;7.90;59.70
50758;DHT22;36732;47.980;11.652;2023-12-20T03:38:06;8.00;59.80
50758;DHT22;36732;47.980;11.652;2023-12-20T03:40:32;8.00;59.80
50758;DHT22;36732;47.980;11.652;2023-12-20T03:42:58;7.90;59.80
50758;DHT22;36732;47.980;11.652;2023-12-20T03:45:23;8.00;59.90
50758;DHT22;36732;47.980;11.652;2023-12-20T03:47:49;8.00;60.00
50758;DHT22;36732;47.980;11.652;2023-12-20T03:50:15;8.00;60.00
50758;DHT22;36732;47.980;11.652;2023-12-20T03:52:41;8.00;59.80
50758;DHT22;36732;47.980;11.652;2023-12-20T03:55:07;8.00;59.90
50758;DHT22;36732;47.980;11.652;2023-12-20T03:57:32;8.00;59.80
50758;DHT22;36732;47.980;11.652;2023-12-20T03:59:58;8.00;59.80
50758;DHT22;36732;47.980;11.652;2023-12-20T04:02:24;8.00;59.90
50758;DHT22;36732;47.980;11.652;2023-12-20T04:04:50;8.00;59.80
50758;DHT22;36732;47.980;11.652;2023-12-20T04:07:18;8.00;59.90
50758;DHT22;36732;47.980;11.652;2023-12-20T04:09:44;8.00;59.90
50758;DHT22;36732;47.980;11.652;2023-12-20T04:12:09;8.00;59.90
50758;DHT22;36732;47.980;11.652;2023-12-20T04:14:35;8.00;59.90
50758;DHT22;36732;47.980;11.652;2023-12-20T04:17:01;8.00;60.00
50758;DHT22;36732;47.980;11.652;2023-12-20T04:19:26;8.00;60.10
50758;DHT22;36732;47.980;11.652;2023-12-20T04:21:52;8.00;60.20
50758;DHT22;36732;47.980;11.652;2023-12-20T04:24:18;8.00;60.20
50758;DHT22;36732;47.980;11.652;2023-12-20T04:26:43;8.00;60.20
50758;DHT22;36732;47.980;11.652;2023-12-20T04:29:09;8.00;60.30
50758;DHT22;36732;47.980;11.652;2023-12-20T04:31:35;8.00;60.40
50758;DHT22;36732;47.980;11.652;2023-12-20T04:34:00;8.00;60.40
50758;DHT22;36732;47.980;11.652;2023-12-20T04:36:26;8.10;60.60
50758;DHT22;36732;47.980;11.652;2023-12-20T04:38:53;8.00;60.60
50758;DHT22;36732;47.980;11.652;2023-12-20T04:41:18;8.10;60.80
50758;DHT22;36732;47.980;11.652;2023-12-20T04:43:44;8.10;60.80
50758;DHT22;36732;47.980;11.652;2023-12-20T04:46:10;8.10;61.00
50758;DHT22;36732;47.980;11.652;2023-12-20T04:48:36;8.10;61.10
50758;DHT22;36732;47.980;11.652;2023-12-20T04:51:02;8.10;61.30
50758;DHT22;36732;47.980;11.652;2023-12-20T04:53:28;8.10;61.40
50758;DHT22;36732;47.980;11.652;2023-12-20T04:55:53;8.10;61.60
50758;DHT22;36732;47.980;11.652;2023-12-20T04:58:19;8.10;61.70
50758;DHT22;36732;47.980;11.652;2023-12-20T05:00:45;8.10;61.80
50758;DHT22;36732;47.980;11.652;2023-12-20T05:03:10;8.10;62.00
50758;DHT22;36732;47.980;11.652;2023-12-20T05:05:36;8.10;62.10
50758;DHT22;36732;47.980;11.652;2023-12-20T05:08:02;8.10;62.30
50758;DHT22;36732;47.980;11.652;2023-12-20T05:10:27;8.10;62.40
50758;DHT22;36732;47.980;11.652;2023-12-20T05:12:53;8.10;62.60
50758;DHT22;36732;47.980;11.652;2023-12-20T05:15:19;8.10;62.70
50758;DHT22;36732;47.980;11.652;2023-12-20T05:17:45;8.10;62.90
50758;DHT22;36732;47.980;11.652;2023-12-20T05:20:11;8.10;63.00
50758;DHT22;36732;47.980;11.652;2023-12-20T05:22:36;8.10;63.10
50758;DHT22;36732;47.980;11.652;2023-12-20T05:25:02;8.10;63.30
50758;DHT22;36732;47.980;11.652;2023-12-20T05:27:29;8.10;63.60
50758;DHT22;36732;47.980;11.652;2023-12-20T05:29:54;8.10;63.80
50758;DHT22;36732;47.980;11.652;2023-12-20T05:32:23;8.10;63.80
50758;DHT22;36732;47.980;11.652;2023-12-20T05:34:49;8.10;64.00
50758;DHT22;36732;47.980;11.652;2023-12-20T05:37:14;8.10;64.20
50758;DHT22;36732;47.980;11.652;2023-12-20T05:39:40;8.10;64.30
50758;DHT22;36732;47.980;11.652;2023-12-20T05:42:06;8.10;64.40
50758;DHT22;36732;47.980;11.652;2023-12-20T05:44:31;8.10;65.10
50758;DHT22;36732;47.980;11.652;2023-12-20T05:46:57;8.10;64.60
50758;DHT22;36732;47.980;11.652;2023-12-20T05:49:23;8.10;64.70
50758;DHT22;36732;47.980;11.652;2023-12-20T05:51:48;8.10;65.00
50758;DHT22;36732;47.980;11.652;2023-12-20T05:54:16;8.10;65.00
50758;DHT22;36732;47.980;11.652;2023-12-20T05:56:42;8.10;65.20
50758;DHT22;36732;47.980;11.652;2023-12-20T05:59:08;8.10;65.30
50758;DHT22;36732;47.980;11.652;2023-12-20T06:01:33;8.20;65.50
50758;DHT22;36732;47.980;11.652;2023-12-20T06:03:59;8.20;65.60
50758;DHT22;36732;47.980;11.652;2023-12-20T06:06:25;8.20;65.70
50758;DHT22;36732;47.980;11.652;2023-12-20T06:08:50;8.20;65.90
50758;DHT22;36732;47.980;11.652;2023-12-20T06:11:16;8.20;65.90
50758;DHT22;36732;47.980;11.652;2023-12-20T06:13:42;8.20;66.00
50758;DHT22;36732;47.980;11.652;2023-12-20T06:16:07;8.20;66.10
50758;DHT22;36732;47.980;11.652;2023-12-20T06:18:33;8.20;66.10
50758;DHT22;36732;47.980;11.652;2023-12-20T06:20:59;8.20;66.20
50758;DHT22;36732;47.980;11.652;2023-12-20T06:23:25;8.20;66.30
50758;DHT22;36732;47.980;11.652;2023-12-20T06:25:50;8.20;66.40
50758;DHT22;36732;47.980;11.652;2023-12-20T06:28:16;8.20;66.50
50758;DHT22;36732;47.980;11.652;2023-12-20T06:30:42;8.20;66.60
50758;DHT22;36732;47.980;11.652;2023-12-20T06:33:07;8.20;66.60
50758;DHT22;36732;47.980;11.652;2023-12-20T06:35:35;8.20;66.60
50758;DHT22;36732;47.980;11.652;2023-12-20T06:38:00;8.10;66.60
50758;DHT22;36732;47.980;11.652;2023-12-20T06:40:26;8.20;66.70
50758;DHT22;36732;47.980;11.652;2023-12-20T06:42:52;8.20;66.80
50758;DHT22;36732;47.980;11.652;2023-12-20T06:45:18;8.20;66.90
50758;DHT22;36732;47.980;11.652;2023-12-20T06:47:43;8.10;66.90
50758;DHT22;36732;47.980;11.652;2023-12-20T06:50:09;8.20;67.00
50758;DHT22;36732;47.980;11.652;2023-12-20T06:52:35;8.10;66.90
50758;DHT22;36732;47.980;11.652;2023-12-20T06:55:01;8.10;67.00
50758;DHT22;36732;47.980;11.652;2023-12-20T06:57:26;8.10;67.00
50758;DHT22;36732;47.980;11.652;2023-12-20T06:59:53;8.10;67.00
50758;DHT22;36732;47.980;11.652;2023-12-20T07:02:18;8.10;67.10
50758;DHT22;36732;47.980;11.652;2023-12-20T07:04:44;8.10;67.10
50758;DHT22;36732;47.980;11.652;2023-12-20T07:07:10;8.10;67.10
50758;DHT22;36732;47.980;11.652;2023-12-20T07:09:35;8.10;67.20
50758;DHT22;36732;47.980;11.652;2023-12-20T07:12:01;8.10;67.20
50758;DHT22;36732;47.980;11.652;2023-12-20T07:14:27;8.10;67.20
50758;DHT22;36732;47.980;11.652;2023-12-20T07:16:54;8.10;67.30
50758;DHT22;36732;47.980;11.652;2023-12-20T07:19:20;8.10;67.30
50758;DHT22;36732;47.980;11.652;2023-12-20T07:21:45;8.10;67.40
50758;DHT22;36732;47.980;11.652;2023-12-20T07:24:11;8.10;67.40
50758;DHT22;36732;47.980;11.652;2023-12-20T07:26:37;8.10;67.40
50758;DHT22;36732;47.980;11.652;2023-12-20T07:29:04;8.10;67.40
50758;DHT22;36732;47.980;11.652;2023-12-20T07:31:29;8.10;67.40
50758;DHT22;36732;47.980;11.652;2023-12-20T07:33:56;8.10;67.50
50758;DHT22;36732;47.980;11.652;2023-12-20T07:36:21;8.10;67.50
50758;DHT22;36732;47.980;11.652;2023-12-20T07:38:47;8.10;67.80
50758;DHT22;36732;47.980;11.652;2023-12-20T07:41:13;8.10;67.80
50758;DHT22;36732;47.980;11.652;2023-12-20T07:43:41;8.10;67.80
50758;DHT22;36732;47.980;11.652;2023-12-20T07:46:08;8.10;67.80
50758;DHT22;36732;47.980;11.652;2023-12-20T07:48:35;8.10;67.80
50758;DHT22;36732;47.980;11.652;2023-12-20T07:51:01;8.10;67.90
50758;DHT22;36732;47.980;11.652;2023-12-20T07:53:27;8.10;67.90
50758;DHT22;36732;47.980;11.652;2023-12-20T07:55:53;8.10;67.90
50758;DHT22;36732;47.980;11.652;2023-12-20T07:58:19;8.10;67.90
50758;DHT22;36732;47.980;11.652;2023-12-20T08:00:45;8.10;68.00
50758;DHT22;36732;47.980;11.652;2023-12-20T08:03:11;8.10;68.00
50758;DHT22;36732;47.980;11.652;2023-12-20T08:05:37;8.10;68.00
50758;DHT22;36732;47.980;11.652;2023-12-20T08:08:06;8.10;68.10
50758;DHT22;36732;47.980;11.652;2023-12-20T08:10:32;8.10;68.00
50758;DHT22;36732;47.980;11.652;2023-12-20T08:12:57;8.10;68.00
50758;DHT22;36732;47.980;11.652;2023-12-20T08:15:23;8.10;68.10
50758;DHT22;36732;47.980;11.652;2023-12-20T08:17:49;8.10;68.10
50758;DHT22;36732;47.980;11.652;2023-12-20T08:20:18;8.10;68.10
50758;DHT22;36732;47.980;11.652;2023-12-20T08:22:44;8.10;68.10
50758;DHT22;36732;47.980;11.652;2023-12-20T08:25:09;8.10;68.10
50758;DHT22;36732;47.980;11.652;2023-12-20T08:27:40;8.10;68.10
50758;DHT22;36732;47.980;11.652;2023-12-20T08:30:07;8.10;68.20
50758;DHT22;36732;47.980;11.652;2023-12-20T08:32:34;8.10;68.10
50758;DHT22;36732;47.980;11.652;2023-12-20T08:35:00;8.10;68.10
50758;DHT22;36732;47.980;11.652;2023-12-20T08:37:25;8.10;68.00
50758;DHT22;36732;47.980;11.652;2023-12-20T08:39:51;8.10;68.10
50758;DHT22;36732;47.980;11.652;2023-12-20T08:42:17;8.10;68.10
50758;DHT22;36732;47.980;11.652;2023-12-20T08:44:42;8.10;68.10
50758;DHT22;36732;47.980;11.652;2023-12-20T08:47:08;8.10;68.00
50758;DHT22;36732;47.980;11.652;2023-12-20T08:49:38;8.10;68.00
50758;DHT22;36732;47.980;11.652;2023-12-20T08:52:05;8.10;68.10
50758;DHT22;36732;47.980;11.652;2023-12-20T08:54:30;8.10;68.10
50758;DHT22;36732;47.980;11.652;2023-12-20T08:56:56;8.10;68.10
50758;DHT22;36732;47.980;11.652;2023-12-20T08:59:22;8.10;68.10
50758;DHT22;36732;47.980;11.652;2023-12-20T09:01:48;8.10;68.20
50758;DHT22;36732;47.980;11.652;2023-12-20T09:04:19;8.10;68.20
50758;DHT22;36732;47.980;11.652;2023-12-20T09:06:45;8.10;68.20
50758;DHT22;36732;47.980;11.652;2023-12-20T09:09:11;8.10;68.20
50758;DHT22;36732;47.980;11.652;2023-12-20T09:11:39;8.10;68.30
50758;DHT22;36732;47.980;11.652;2023-12-20T09:14:04;8.10;68.90
50758;DHT22;36732;47.980;11.652;2023-12-20T09:16:30;8.10;68.30
50758;DHT22;36732;47.980;11.652;2023-12-20T09:18:57;8.10;68.30
50758;DHT22;36732;47.980;11.652;2023-12-20T09:21:23;8.10;68.30
50758;DHT22;36732;47.980;11.652;2023-12-20T09:23:49;8.00;68.30
50758;DHT22;36732;47.980;11.652;2023-12-20T09:26:14;8.10;68.40
50758;DHT22;36732;47.980;11.652;2023-12-20T09:28:40;8.10;68.40
50758;DHT22;36732;47.980;11.652;2023-12-20T09:31:06;8.00;68.40
50758;DHT22;36732;47.980;11.652;2023-12-20T09:33:32;8.00;68.40
50758;DHT22;36732;47.980;11.652;2023-12-20T09:35:58;8.00;68.40
50758;DHT22;36732;47.980;11.652;2023-12-20T09:38:24;8.00;68.50
50758;DHT22;36732;47.980;11.652;2023-12-20T09:40:50;8.00;68.40
50758;DHT22;36732;47.980;11.652;2023-12-20T09:43:19;8.00;68.50
50758;DHT22;36732;47.980;11.652;2023-12-20T09:45:46;8.00;68.50
50758;DHT22;36732;47.980;11.652;2023-12-20T09:48:13;8.10;68.50
50758;DHT22;36732;47.980;11.652;2023-12-20T09:50:43;8.00;68.50
50758;DHT22;36732;47.980;11.652;2023-12-20T09:53:11;8.00;68.60
50758;DHT22;36732;47.980;11.652;2023-12-20T09:55:37;8.00;68.60
50758;DHT22;36732;47.980;11.652;2023-12-20T09:58:03;8.00;68.50
50758;DHT22;36732;47.980;11.652;2023-12-20T10:00:30;8.00;68.60
50758;DHT22;36732;47.980;11.652;2023-12-20T10:03:00;8.00;68.60
50758;DHT22;36732;47.980;11.652;2023-12-20T10:05:30;8.00;68.80
50758;DHT22;36732;47.980;11.652;2023-12-20T10:07:58;8.00;68.70
50758;DHT22;36732;47.980;11.652;2023-12-20T10:10:25;8.10;68.70
50758;DHT22;36732;47.980;11.652;2023-12-20T10:13:06;8.10;68.80
50758;DHT22;36732;47.980;11.652;2023-12-20T10:15:35;8.00;69.10
50758;DHT22;36732;47.980;11.652;2023-12-20T10:18:02;8.10;68.80
50758;DHT22;36732;47.980;11.652;2023-12-20T10:20:28;8.10;68.80
50758;DHT22;36732;47.980;11.652;2023-12-20T10:22:59;8.10;68.90
50758;DHT22;36732;47.980;11.652;2023-12-20T10:25:25;8.10;69.00
50758;DHT22;36732;47.980;11.652;2023-12-20T10:28:12;8.10;68.90
50758;DHT22;36732;47.980;11.652;2023-12-20T10:30:40;8.10;69.40
50758;DHT22;36732;47.980;11.652;2023-12-20T10:33:07;8.10;69.10
50758;DHT22;36732;47.980;11.652;2023-12-20T10:35:34;8.10;69.10
50758;DHT22;36732;47.980;11.652;2023-12-20T10:38:03;8.10;69.20
50758;DHT22;36732;47.980;11.652;2023-12-20T10:40:31;8.10;69.30
50758;DHT22;36732;47.980;11.652;2023-12-20T10:42:59;8.10;69.20
50758;DHT22;36732;47.980;11.652;2023-12-20T10:45:26;8.10;69.30
50758;DHT22;36732;47.980;11.652;2023-12-20T10:47:52;8.10;69.30
50758;DHT22;36732;47.980;11.652;2023-12-20T10:50:19;8.10;69.30
50758;DHT22;36732;47.980;11.652;2023-12-20T10:52:46;8.10;69.40
50758;DHT22;36732;47.980;11.652;2023-12-20T10:55:13;8.10;69.30
50758;DHT22;36732;47.980;11.652;2023-12-20T10:57:39;8.10;69.30
50758;DHT22;36732;47.980;11.652;2023-12-20T11:00:08;8.10;70.00
50758;DHT22;36732;47.980;11.652;2023-12-20T11:02:39;8.20;69.50
50758;DHT22;36732;47.980;11.652;2023-12-20T11:08:11;8.20;70.10
50758;DHT22;36732;47.980;11.652;2023-12-20T11:10:59;8.20;69.50
50758;DHT22;36732;47.980;11.652;2023-12-20T11:13:55;8.20;69.60
50758;DHT22;36732;47.980;11.652;2023-12-20T11:16:23;8.20;69.90
50758;DHT22;36732;47.980;11.652;2023-12-20T11:18:51;8.20;69.30
50758;DHT22;36732;47.980;11.652;2023-12-20T11:21:16;8.20;69.30
50758;DHT22;36732;47.980;11.652;2023-12-20T11:23:42;8.20;69.30
50758;DHT22;36732;47.980;11.652;2023-12-20T11:26:08;8.30;69.30
50758;DHT22;36732;47.980;11.652;2023-12-20T11:28:34;8.20;69.30
50758;DHT22;36732;47.980;11.652;2023-12-20T11:31:01;8.30;69.40
50758;DHT22;36732;47.980;11.652;2023-12-20T11:33:39;8.30;69.40
50758;DHT22;36732;47.980;11.652;2023-12-20T11:36:13;8.30;69.40
50758;DHT22;36732;47.980;11.652;2023-12-20T11:38:56;8.30;69.50
50758;DHT22;36732;47.980;11.652;2023-12-20T11:41:26;8.30;69.60
50758;DHT22;36732;47.980;11.652;2023-12-20T11:43:55;8.30;69.40
50758;DHT22;36732;47.980;11.652;2023-12-20T11:46:22;8.30;69.40
50758;DHT22;36732;47.980;11.652;2023-12-20T11:48:48;8.30;69.20
50758;DHT22;36732;47.980;11.652;2023-12-20T11:51:14;8.30;69.30
50758;DHT22;36732;47.980;11.652;2023-12-20T11:53:40;8.30;69.30
50758;DHT22;36732;47.980;11.652;2023-12-20T11:56:08;8.30;69.30
50758;DHT22;36732;47.980;11.652;2023-12-20T11:58:34;8.30;69.30
50758;DHT22;36732;47.980;11.652;2023-12-20T12:01:01;8.30;69.20
50758;DHT22;36732;47.980;11.652;2023-12-20T12:03:30;8.30;69.30
50758;DHT22;36732;47.980;11.652;2023-12-20T12:05:55;8.30;69.30
50758;DHT22;36732;47.980;11.652;2023-12-20T12:08:21;8.30;69.40
50758;DHT22;36732;47.980;11.652;2023-12-20T12:10:47;8.30;69.40
50758;DHT22;36732;47.980;11.652;2023-12-20T12:13:13;8.30;69.40
50758;DHT22;36732;47.980;11.652;2023-12-20T12:15:40;8.30;69.30
50758;DHT22;36732;47.980;11.652;2023-12-20T12:18:07;8.30;69.40
50758;DHT22;36732;47.980;11.652;2023-12-20T12:20:33;8.30;69.40
50758;DHT22;36732;47.980;11.652;2023-12-20T12:23:04;8.30;69.40
50758;DHT22;36732;47.980;11.652;2023-12-20T12:25:34;8.40;69.50
50758;DHT22;36732;47.980;11.652;2023-12-20T12:28:01;8.40;69.60
50758;DHT22;36732;47.980;11.652;2023-12-20T12:30:27;8.30;69.50
50758;DHT22;36732;47.980;11.652;2023-12-20T12:32:54;8.40;69.60
50758;DHT22;36732;47.980;11.652;2023-12-20T12:35:21;8.40;69.60
50758;DHT22;36732;47.980;11.652;2023-12-20T12:37:47;8.40;69.60
50758;DHT22;36732;47.980;11.652;2023-12-20T12:40:15;8.40;69.60
50758;DHT22;36732;47.980;11.652;2023-12-20T12:42:43;8.40;69.70
50758;DHT22;36732;47.980;11.652;2023-12-20T12:45:09;8.40;69.70
50758;DHT22;36732;47.980;11.652;2023-12-20T12:47:37;8.40;69.70
50758;DHT22;36732;47.980;11.652;2023-12-20T12:50:02;8.40;69.60
50758;DHT22;36732;47.980;11.652;2023-12-20T12:52:30;8.40;69.60
50758;DHT22;36732;47.980;11.652;2023-12-20T12:54:56;8.40;69.70
50758;DHT22;36732;47.980;11.652;2023-12-20T12:57:21;8.40;69.60
50758;DHT22;36732;47.980;11.652;2023-12-20T12:59:47;8.40;69.60
50758;DHT22;36732;47.980;11.652;2023-12-20T13:02:13;8.40;69.60
50758;DHT22;36732;47.980;11.652;2023-12-20T13:04:39;8.40;69.60
50758;DHT22;36732;47.980;11.652;2023-12-20T13:07:06;8.40;69.50
50758;DHT22;36732;47.980;11.652;2023-12-20T13:09:33;8.50;69.60
50758;DHT22;36732;47.980;11.652;2023-12-20T13:11:59;8.50;69.60
50758;DHT22;36732;47.980;11.652;2023-12-20T13:14:25;8.40;69.50
50758;DHT22;36732;47.980;11.652;2023-12-20T13:16:50;8.40;69.60
50758;DHT22;36732;47.980;11.652;2023-12-20T13:19:16;8.50;69.70
50758;DHT22;36732;47.980;11.652;2023-12-20T13:21:42;8.50;69.70
50758;DHT22;36732;47.980;11.652;2023-12-20T13:24:07;8.50;69.70
50758;DHT22;36732;47.980;11.652;2023-12-20T13:26:33;8.50;69.60
50758;DHT22;36732;47.980;11.652;2023-12-20T13:28:59;8.50;69.70
50758;DHT22;36732;47.980;11.652;2023-12-20T13:31:25;8.50;69.70
50758;DHT22;36732;47.980;11.652;2023-12-20T13:33:50;8.50;69.60
50758;DHT22;36732;47.980;11.652;2023-12-20T13:36:17;8.50;69.60
50758;DHT22;36732;47.980;11.652;2023-12-20T13:38:43;8.50;69.60
50758;DHT22;36732;47.980;11.652;2023-12-20T13:41:09;8.50;69.60
50758;DHT22;36732;47.980;11.652;2023-12-20T13:43:35;8.50;69.50
50758;DHT22;36732;47.980;11.652;2023-12-20T13:46:00;8.50;69.50
50758;DHT22;36732;47.980;11.652;2023-12-20T13:48:26;8.50;69.50
50758;DHT22;36732;47.980;11.652;2023-12-20T13:50:52;8.50;69.50
50758;DHT22;36732;47.980;11.652;2023-12-20T13:53:18;8.50;69.60
50758;DHT22;36732;47.980;11.652;2023-12-20T13:55:44;8.50;69.50
50758;DHT22;36732;47.980;11.652;2023-12-20T13:58:10;8.50;69.50
50758;DHT22;36732;47.980;11.652;2023-12-20T14:00:36;8.50;70.10
50758;DHT22;36732;47.980;11.652;2023-12-20T14:03:03;8.50;69.50
50758;DHT22;36732;47.980;11.652;2023-12-20T14:05:29;8.60;69.50
50758;DHT22;36732;47.980;11.652;2023-12-20T14:07:55;8.50;69.30
50758;DHT22;36732;47.980;11.652;2023-12-20T14:10:23;8.50;69.00
50758;DHT22;36732;47.980;11.652;2023-12-20T14:12:52;8.50;68.80
50758;DHT22;36732;47.980;11.652;2023-12-20T14:15:18;8.50;68.60
50758;DHT22;36732;47.980;11.652;2023-12-20T14:17:44;8.50;68.50
50758;DHT22;36732;47.980;11.652;2023-12-20T14:20:09;8.40;68.40
50758;DHT22;36732;47.980;11.652;2023-12-20T14:22:37;8.40;68.30
50758;DHT22;36732;47.980;11.652;2023-12-20T14:25:04;8.40;68.20
50758;DHT22;36732;47.980;11.652;2023-12-20T14:27:31;8.30;68.20
50758;DHT22;36732;47.980;11.652;2023-12-20T14:29:57;8.30;68.30
50758;DHT22;36732;47.980;11.652;2023-12-20T14:32:23;8.30;68.40
50758;DHT22;36732;47.980;11.652;2023-12-20T14:34:50;8.30;68.50
50758;DHT22;36732;47.980;11.652;2023-12-20T14:37:15;8.30;68.60
50758;DHT22;36732;47.980;11.652;2023-12-20T14:39:42;8.30;68.60
50758;DHT22;36732;47.980;11.652;2023-12-20T14:42:08;8.20;68.60
50758;DHT22;36732;47.980;11.652;2023-12-20T14:44:40;8.20;68.70
50758;DHT22;36732;47.980;11.652;2023-12-20T14:47:08;8.20;68.70
50758;DHT22;36732;47.980;11.652;2023-12-20T14:49:34;8.20;68.70
50758;DHT22;36732;47.980;11.652;2023-12-20T14:52:01;8.20;68.70
50758;DHT22;36732;47.980;11.652;2023-12-20T14:54:26;8.20;68.70
50758;DHT22;36732;47.980;11.652;2023-12-20T14:56:52;8.20;68.80
50758;DHT22;36732;47.980;11.652;2023-12-20T14:59:18;8.20;68.80
50758;DHT22;36732;47.980;11.652;2023-12-20T15:01:44;8.20;69.50
50758;DHT22;36732;47.980;11.652;2023-12-20T15:04:10;8.20;68.80
50758;DHT22;36732;47.980;11.652;2023-12-20T15:06:36;8.20;69.40
50758;DHT22;36732;47.980;11.652;2023-12-20T15:09:02;8.20;68.80
50758;DHT22;36732;47.980;11.652;2023-12-20T15:11:30;8.20;68.80
50758;DHT22;36732;47.980;11.652;2023-12-20T15:13:56;8.20;68.80
50758;DHT22;36732;47.980;11.652;2023-12-20T15:16:23;8.20;68.80
50758;DHT22;36732;47.980;11.652;2023-12-20T15:18:49;8.20;68.80
50758;DHT22;36732;47.980;11.652;2023-12-20T15:21:16;8.20;68.70
50758;DHT22;36732;47.980;11.652;2023-12-20T15:23:42;8.20;68.70
50758;DHT22;36732;47.980;11.652;2023-12-20T15:26:33;8.20;68.70
50758;DHT22;36732;47.980;11.652;2023-12-20T15:29:00;8.20;68.50